createdAt,value
2017-07-29T00:00:02.886Z,0
2017-07-29T00:00:43.458Z,0
2017-07-29T00:01:24.032Z,0
2017-07-29T00:02:04.596Z,0
2017-07-29T00:02:45.202Z,0
2017-07-29T00:03:25.873Z,0
2017-07-29T00:04:06.437Z,0
2017-07-29T00:04:47.007Z,0
2017-07-29T00:05:27.616Z,0
2017-07-29T00:06:08.180Z,0
2017-07-29T00:06:48.784Z,0
2017-07-29T00:07:29.358Z,0
2017-07-29T00:08:09.939Z,0
2017-07-29T00:08:50.519Z,0
2017-07-29T00:09:31.083Z,0
2017-07-29T00:10:11.656Z,0
2017-07-29T00:10:52.222Z,0
2017-07-29T00:11:32.793Z,0
2017-07-29T00:12:13.390Z,0
2017-07-29T00:12:53.968Z,0
2017-07-29T00:13:34.543Z,0
2017-07-29T00:14:15.143Z,0
2017-07-29T00:14:55.719Z,0
2017-07-29T00:15:36.281Z,0
2017-07-29T00:16:16.849Z,0
2017-07-29T00:16:57.422Z,0
2017-07-29T00:17:38.013Z,0
2017-07-29T00:18:18.579Z,0
2017-07-29T00:18:59.150Z,0
2017-07-29T00:19:39.754Z,0
2017-07-29T00:20:20.317Z,0
2017-07-29T00:21:00.871Z,0
2017-07-29T00:21:41.449Z,0
2017-07-29T00:22:22.068Z,0
2017-07-29T00:23:02.680Z,0
2017-07-29T00:23:43.250Z,0
2017-07-29T00:24:23.827Z,0
2017-07-29T00:25:04.391Z,0
2017-07-29T00:25:44.965Z,0
2017-07-29T00:26:25.542Z,0
2017-07-29T00:27:06.152Z,0
2017-07-29T00:27:46.765Z,0
2017-07-29T00:28:27.329Z,0
2017-07-29T00:29:07.934Z,0
2017-07-29T00:29:48.496Z,0
2017-07-29T00:30:29.090Z,0
2017-07-29T00:31:09.658Z,0
2017-07-29T00:31:50.233Z,0
2017-07-29T00:32:30.794Z,0
2017-07-29T00:33:11.375Z,0
2017-07-29T00:33:51.941Z,0
2017-07-29T00:34:32.545Z,0
2017-07-29T00:35:13.132Z,0
2017-07-29T00:35:53.707Z,0
2017-07-29T00:36:34.288Z,0
2017-07-29T00:37:14.868Z,0
2017-07-29T00:37:55.444Z,0
2017-07-29T00:38:36.025Z,0
2017-07-29T00:39:16.609Z,0
2017-07-29T00:39:57.170Z,0
2017-07-29T00:40:40.728Z,0
2017-07-29T00:41:21.298Z,0
2017-07-29T00:42:01.877Z,0
2017-07-29T00:42:42.446Z,0
2017-07-29T00:43:23.043Z,0
2017-07-29T00:44:03.608Z,0
2017-07-29T00:44:44.188Z,0
2017-07-29T00:45:24.766Z,0
2017-07-29T00:46:05.353Z,0
2017-07-29T00:46:45.920Z,0
2017-07-29T00:47:26.541Z,0
2017-07-29T00:48:07.098Z,0
2017-07-29T00:48:47.660Z,0
2017-07-29T00:49:28.235Z,0
2017-07-29T00:50:08.811Z,0
2017-07-29T00:50:49.394Z,0
2017-07-29T00:51:29.961Z,0
2017-07-29T00:52:10.528Z,0
2017-07-29T00:52:51.103Z,0
2017-07-29T00:53:31.673Z,0
2017-07-29T00:54:12.241Z,0
2017-07-29T00:54:52.854Z,0
2017-07-29T00:55:33.441Z,0
2017-07-29T00:56:14.009Z,0
2017-07-29T00:56:54.574Z,0
2017-07-29T00:57:35.156Z,0
2017-07-29T00:58:15.728Z,0
2017-07-29T00:58:56.307Z,0
2017-07-29T00:59:36.887Z,0
2017-07-29T01:00:17.480Z,0
2017-07-29T01:00:58.068Z,0
2017-07-29T01:01:38.643Z,0
2017-07-29T01:02:19.240Z,0
2017-07-29T01:02:59.809Z,0
2017-07-29T01:03:40.377Z,0
2017-07-29T01:04:20.965Z,0
2017-07-29T01:05:01.544Z,0
2017-07-29T01:05:42.114Z,0
2017-07-29T01:06:22.687Z,0
2017-07-29T01:07:03.253Z,0
2017-07-29T01:07:43.850Z,0
2017-07-29T01:08:24.435Z,0
2017-07-29T01:09:05.010Z,0
2017-07-29T01:09:45.579Z,0
2017-07-29T01:10:26.161Z,0
2017-07-29T01:11:06.729Z,0
2017-07-29T01:11:47.299Z,0
2017-07-29T01:12:27.893Z,0
2017-07-29T01:13:08.456Z,0
2017-07-29T01:13:49.052Z,0
2017-07-29T01:14:29.644Z,0
2017-07-29T01:15:10.207Z,0
2017-07-29T01:15:50.771Z,0
2017-07-29T01:16:31.330Z,0
2017-07-29T01:17:11.897Z,0
2017-07-29T01:17:52.500Z,0
2017-07-29T01:18:33.098Z,0
2017-07-29T01:19:13.687Z,0
2017-07-29T01:19:54.257Z,0
2017-07-29T01:20:34.820Z,0
2017-07-29T01:21:15.392Z,0
2017-07-29T01:21:55.965Z,0
2017-07-29T01:22:36.535Z,0
2017-07-29T01:23:17.101Z,0
2017-07-29T01:23:57.695Z,0
2017-07-29T01:24:38.258Z,0
2017-07-29T01:25:18.827Z,0
2017-07-29T01:25:59.403Z,0
2017-07-29T01:26:39.987Z,0
2017-07-29T01:27:20.571Z,0
2017-07-29T01:28:01.135Z,0
2017-07-29T01:28:41.774Z,0
2017-07-29T01:29:22.314Z,0
2017-07-29T01:30:02.929Z,0
2017-07-29T01:30:43.511Z,0
2017-07-29T01:31:24.079Z,0
2017-07-29T01:32:04.652Z,0
2017-07-29T01:32:45.235Z,0
2017-07-29T01:33:25.811Z,0
2017-07-29T01:34:06.383Z,0
2017-07-29T01:34:46.949Z,0
2017-07-29T01:35:27.532Z,0
2017-07-29T01:36:08.123Z,0
2017-07-29T01:36:48.710Z,0
2017-07-29T01:37:29.274Z,0
2017-07-29T01:38:09.893Z,0
2017-07-29T01:38:50.472Z,0
2017-07-29T01:39:31.031Z,0
2017-07-29T01:40:11.623Z,0
2017-07-29T01:40:52.193Z,0
2017-07-29T01:41:32.809Z,0
2017-07-29T01:42:13.395Z,0
2017-07-29T01:42:53.998Z,0
2017-07-29T01:43:34.541Z,0
2017-07-29T01:44:15.105Z,0
2017-07-29T01:44:55.690Z,0
2017-07-29T01:45:36.271Z,0
2017-07-29T01:46:16.862Z,0
2017-07-29T01:46:57.443Z,0
2017-07-29T01:47:38.013Z,0
2017-07-29T01:48:18.575Z,0
2017-07-29T01:48:59.197Z,0
2017-07-29T01:49:39.764Z,0
2017-07-29T01:50:20.332Z,0
2017-07-29T01:51:00.913Z,0
2017-07-29T01:51:41.502Z,0
2017-07-29T01:52:22.102Z,0
2017-07-29T01:53:02.741Z,0
2017-07-29T01:53:43.307Z,0
2017-07-29T01:54:23.874Z,0
2017-07-29T01:55:04.442Z,0
2017-07-29T01:55:45.013Z,0
2017-07-29T01:56:25.576Z,0
2017-07-29T01:57:06.144Z,0
2017-07-29T01:57:46.741Z,0
2017-07-29T01:58:27.303Z,0
2017-07-29T01:59:07.889Z,0
2017-07-29T01:59:48.493Z,0
2017-07-29T02:00:29.101Z,0
2017-07-29T02:01:09.790Z,0
2017-07-29T02:01:50.362Z,0
2017-07-29T02:02:30.932Z,0
2017-07-29T02:03:11.492Z,0
2017-07-29T02:03:52.061Z,0
2017-07-29T02:04:32.630Z,0
2017-07-29T02:05:13.197Z,0
2017-07-29T02:05:53.767Z,0
2017-07-29T02:06:34.341Z,0
2017-07-29T02:07:14.940Z,0
2017-07-29T02:07:55.520Z,0
2017-07-29T02:08:36.105Z,0
2017-07-29T02:09:16.689Z,0
2017-07-29T02:09:57.275Z,0
2017-07-29T02:10:37.846Z,0
2017-07-29T02:11:18.464Z,0
2017-07-29T02:11:59.053Z,0
2017-07-29T02:12:39.629Z,0
2017-07-29T02:13:20.194Z,0
2017-07-29T02:14:00.758Z,0
2017-07-29T02:14:41.343Z,0
2017-07-29T02:15:21.940Z,0
2017-07-29T02:16:02.523Z,0
2017-07-29T02:16:43.109Z,0
2017-07-29T02:17:23.680Z,0
2017-07-29T02:18:04.251Z,0
2017-07-29T02:18:44.817Z,0
2017-07-29T02:19:25.406Z,0
2017-07-29T02:20:06.006Z,0
2017-07-29T02:20:46.572Z,0
2017-07-29T02:21:27.150Z,0
2017-07-29T02:22:07.725Z,0
2017-07-29T02:22:48.291Z,0
2017-07-29T02:23:28.865Z,0
2017-07-29T02:24:09.429Z,0
2017-07-29T02:24:50.004Z,0
2017-07-29T02:25:30.562Z,0
2017-07-29T02:26:11.140Z,0
2017-07-29T02:26:51.716Z,0
2017-07-29T02:27:32.270Z,0
2017-07-29T02:28:12.843Z,0
2017-07-29T02:28:53.418Z,0
2017-07-29T02:29:33.996Z,0
2017-07-29T02:30:14.586Z,0
2017-07-29T02:30:55.162Z,0
2017-07-29T02:31:35.799Z,0
2017-07-29T02:32:16.340Z,0
2017-07-29T02:32:56.929Z,0
2017-07-29T02:33:37.507Z,0
2017-07-29T02:34:18.088Z,0
2017-07-29T02:34:58.634Z,0
2017-07-29T02:35:39.198Z,0
2017-07-29T02:36:19.769Z,0
2017-07-29T02:37:00.370Z,0
2017-07-29T02:37:40.949Z,0
2017-07-29T02:38:21.558Z,0
2017-07-29T02:39:02.186Z,0
2017-07-29T02:39:42.745Z,0
2017-07-29T02:40:23.335Z,0
2017-07-29T02:41:03.911Z,0
2017-07-29T02:41:44.485Z,0
2017-07-29T02:42:25.079Z,0
2017-07-29T02:43:05.649Z,0
2017-07-29T02:43:46.219Z,0
2017-07-29T02:44:26.782Z,0
2017-07-29T02:45:07.362Z,0
2017-07-29T02:45:47.948Z,0
2017-07-29T02:46:28.560Z,0
2017-07-29T02:47:09.116Z,0
2017-07-29T02:47:49.679Z,0
2017-07-29T02:48:30.253Z,0
2017-07-29T02:49:10.838Z,0
2017-07-29T02:49:51.429Z,0
2017-07-29T02:50:32.022Z,0
2017-07-29T02:51:12.599Z,0
2017-07-29T02:51:53.180Z,0
2017-07-29T02:52:33.766Z,0
2017-07-29T02:53:14.346Z,0
2017-07-29T02:53:54.906Z,0
2017-07-29T02:54:35.539Z,0
2017-07-29T02:55:16.103Z,0
2017-07-29T02:55:56.682Z,0
2017-07-29T02:56:37.338Z,0
2017-07-29T02:57:17.914Z,0
2017-07-29T02:57:58.487Z,0
2017-07-29T02:58:39.083Z,0
2017-07-29T02:59:19.660Z,0
2017-07-29T03:00:00.251Z,0
2017-07-29T03:00:40.809Z,0
2017-07-29T03:01:21.382Z,0
2017-07-29T03:02:01.974Z,0
2017-07-29T03:02:42.556Z,0
2017-07-29T03:03:23.121Z,0
2017-07-29T03:04:03.699Z,0
2017-07-29T03:04:44.276Z,0
2017-07-29T03:05:24.873Z,0
2017-07-29T03:06:05.479Z,0
2017-07-29T03:06:46.062Z,0
2017-07-29T03:07:26.668Z,0
2017-07-29T03:08:07.257Z,0
2017-07-29T03:08:47.869Z,0
2017-07-29T03:09:28.463Z,0
2017-07-29T03:10:09.034Z,0
2017-07-29T03:10:49.622Z,0
2017-07-29T03:11:30.213Z,0
2017-07-29T03:12:10.770Z,0
2017-07-29T03:12:51.351Z,0
2017-07-29T03:13:31.938Z,0
2017-07-29T03:14:12.504Z,0
2017-07-29T03:14:53.066Z,0
2017-07-29T03:15:33.647Z,0
2017-07-29T03:16:14.214Z,0
2017-07-29T03:16:54.817Z,0
2017-07-29T03:17:35.393Z,0
2017-07-29T03:18:15.956Z,0
2017-07-29T03:18:56.540Z,0
2017-07-29T03:19:37.112Z,0
2017-07-29T03:20:17.791Z,0
2017-07-29T03:20:58.401Z,0
2017-07-29T03:21:38.985Z,0
2017-07-29T03:22:19.545Z,0
2017-07-29T03:23:00.109Z,0
2017-07-29T03:23:40.694Z,0
2017-07-29T03:24:21.258Z,0
2017-07-29T03:25:01.850Z,0
2017-07-29T03:25:42.416Z,0
2017-07-29T03:26:22.994Z,0
2017-07-29T03:27:03.559Z,0
2017-07-29T03:27:44.144Z,0
2017-07-29T03:28:24.715Z,0
2017-07-29T03:29:05.296Z,0
2017-07-29T03:29:45.889Z,0
2017-07-29T03:30:26.455Z,0
2017-07-29T03:31:07.029Z,0
2017-07-29T03:31:47.607Z,0
2017-07-29T03:32:28.188Z,0
2017-07-29T03:33:08.760Z,0
2017-07-29T03:33:49.332Z,0
2017-07-29T03:34:29.922Z,0
2017-07-29T03:35:10.517Z,0
2017-07-29T03:35:51.086Z,0
2017-07-29T03:36:31.663Z,0
2017-07-29T03:37:12.233Z,0
2017-07-29T03:37:52.802Z,0
2017-07-29T03:38:33.372Z,0
2017-07-29T03:39:13.943Z,0
2017-07-29T03:39:54.529Z,0
2017-07-29T03:40:35.084Z,0
2017-07-29T03:41:15.666Z,0
2017-07-29T03:41:56.222Z,0
2017-07-29T03:42:36.796Z,0
2017-07-29T03:43:17.365Z,5
2017-07-29T03:43:57.975Z,5
2017-07-29T03:44:38.556Z,5
2017-07-29T03:45:19.182Z,5
2017-07-29T03:45:59.751Z,5
2017-07-29T03:46:40.372Z,5
2017-07-29T03:47:20.935Z,5
2017-07-29T03:48:01.499Z,5
2017-07-29T03:48:42.105Z,5
2017-07-29T03:49:22.679Z,5
2017-07-29T03:50:03.244Z,5
2017-07-29T03:50:43.804Z,5
2017-07-29T03:51:24.378Z,5
2017-07-29T03:52:04.959Z,10
2017-07-29T03:52:45.568Z,10
2017-07-29T03:53:26.129Z,10
2017-07-29T03:54:06.703Z,10
2017-07-29T03:54:47.304Z,10
2017-07-29T03:55:27.932Z,10
2017-07-29T03:56:08.524Z,10
2017-07-29T03:56:49.087Z,10
2017-07-29T03:57:29.661Z,10
2017-07-29T03:58:10.232Z,10
2017-07-29T03:58:50.800Z,10
2017-07-29T03:59:31.400Z,10
2017-07-29T04:00:11.961Z,10
2017-07-29T04:00:52.555Z,10
2017-07-29T04:01:33.178Z,10
2017-07-29T04:02:13.740Z,10
2017-07-29T04:02:54.316Z,10
2017-07-29T04:03:34.885Z,10
2017-07-29T04:04:15.495Z,10
2017-07-29T04:04:56.064Z,15
2017-07-29T04:05:36.629Z,15
2017-07-29T04:06:17.222Z,15
2017-07-29T04:06:57.777Z,15
2017-07-29T04:07:38.350Z,15
2017-07-29T04:08:18.916Z,15
2017-07-29T04:08:59.489Z,20
2017-07-29T04:09:40.050Z,20
2017-07-29T04:10:20.625Z,20
2017-07-29T04:11:01.234Z,20
2017-07-29T04:11:41.837Z,20
2017-07-29T04:12:22.409Z,20
2017-07-29T04:13:02.980Z,15
2017-07-29T04:13:43.536Z,15
2017-07-29T04:14:24.166Z,15
2017-07-29T04:15:04.731Z,15
2017-07-29T04:15:45.294Z,15
2017-07-29T04:16:25.872Z,15
2017-07-29T04:17:06.445Z,15
2017-07-29T04:17:47.020Z,15
2017-07-29T04:18:27.582Z,15
2017-07-29T04:19:08.221Z,15
2017-07-29T04:19:48.814Z,15
2017-07-29T04:20:29.372Z,15
2017-07-29T04:21:09.955Z,15
2017-07-29T04:21:50.551Z,15
2017-07-29T04:22:31.161Z,15
2017-07-29T04:23:11.736Z,15
2017-07-29T04:23:52.320Z,15
2017-07-29T04:24:32.907Z,15
2017-07-29T04:25:13.487Z,15
2017-07-29T04:25:54.075Z,15
2017-07-29T04:26:34.653Z,15
2017-07-29T04:27:15.211Z,15
2017-07-29T04:27:55.779Z,15
2017-07-29T04:28:36.384Z,15
2017-07-29T04:29:16.985Z,15
2017-07-29T04:29:57.631Z,15
2017-07-29T04:30:38.225Z,15
2017-07-29T04:31:18.828Z,15
2017-07-29T04:31:59.438Z,15
2017-07-29T04:32:40.024Z,15
2017-07-29T04:33:20.601Z,15
2017-07-29T04:34:01.174Z,15
2017-07-29T04:34:41.750Z,15
2017-07-29T04:35:22.320Z,15
2017-07-29T04:36:02.886Z,15
2017-07-29T04:36:43.497Z,15
2017-07-29T04:37:24.089Z,15
2017-07-29T04:38:04.669Z,20
2017-07-29T04:38:45.249Z,20
2017-07-29T04:39:25.854Z,20
2017-07-29T04:40:06.443Z,25
2017-07-29T04:40:47.033Z,30
2017-07-29T04:41:27.673Z,35
2017-07-29T04:42:08.282Z,40
2017-07-29T04:42:48.855Z,45
2017-07-29T04:43:29.464Z,50
2017-07-29T04:44:10.124Z,55
2017-07-29T04:44:50.729Z,55
2017-07-29T04:45:31.313Z,55
2017-07-29T04:46:11.895Z,55
2017-07-29T04:46:52.469Z,50
2017-07-29T04:47:33.057Z,50
2017-07-29T04:48:13.639Z,45
2017-07-29T04:48:54.217Z,45
2017-07-29T04:49:34.798Z,40
2017-07-29T04:50:15.385Z,35
2017-07-29T04:50:55.961Z,30
2017-07-29T04:51:36.536Z,25
2017-07-29T04:52:17.121Z,20
2017-07-29T04:52:57.729Z,15
2017-07-29T04:53:38.320Z,15
2017-07-29T04:54:18.917Z,15
2017-07-29T04:54:59.488Z,15
2017-07-29T04:55:40.084Z,15
2017-07-29T04:56:20.691Z,20
2017-07-29T04:57:01.303Z,20
2017-07-29T04:57:41.947Z,20
2017-07-29T04:58:22.511Z,15
2017-07-29T04:59:03.084Z,15
2017-07-29T04:59:43.666Z,15
2017-07-29T05:00:24.275Z,15
2017-07-29T05:01:04.851Z,15
2017-07-29T05:01:45.440Z,15
2017-07-29T05:02:26.033Z,15
2017-07-29T05:03:06.621Z,15
2017-07-29T05:03:47.195Z,15
2017-07-29T05:04:27.815Z,15
2017-07-29T05:05:08.399Z,15
2017-07-29T05:05:48.990Z,15
2017-07-29T05:06:29.602Z,15
2017-07-29T05:07:10.195Z,15
2017-07-29T05:07:50.835Z,15
2017-07-29T05:08:31.418Z,15
2017-07-29T05:09:12.011Z,15
2017-07-29T05:09:52.598Z,15
2017-07-29T05:10:33.166Z,15
2017-07-29T05:11:13.768Z,15
2017-07-29T05:11:54.361Z,20
2017-07-29T05:12:34.924Z,20
2017-07-29T05:13:15.510Z,20
2017-07-29T05:13:56.125Z,20
2017-07-29T05:14:36.749Z,20
2017-07-29T05:15:17.328Z,20
2017-07-29T05:15:57.929Z,20
2017-07-29T05:16:38.496Z,20
2017-07-29T05:17:19.157Z,20
2017-07-29T05:17:59.741Z,20
2017-07-29T05:18:40.332Z,20
2017-07-29T05:19:20.947Z,20
2017-07-29T05:20:01.544Z,20
2017-07-29T05:20:42.142Z,15
2017-07-29T05:21:22.766Z,15
2017-07-29T05:22:03.311Z,15
2017-07-29T05:22:43.894Z,15
2017-07-29T05:23:24.491Z,15
2017-07-29T05:24:05.078Z,15
2017-07-29T05:24:45.643Z,15
2017-07-29T05:25:26.208Z,15
2017-07-29T05:26:06.804Z,15
2017-07-29T05:26:47.416Z,15
2017-07-29T05:27:27.993Z,15
2017-07-29T05:28:08.567Z,15
2017-07-29T05:28:49.138Z,15
2017-07-29T05:29:29.710Z,15
2017-07-29T05:30:10.302Z,15
2017-07-29T05:30:50.887Z,15
2017-07-29T05:31:31.463Z,20
2017-07-29T05:32:12.024Z,20
2017-07-29T05:32:52.600Z,20
2017-07-29T05:33:33.180Z,20
2017-07-29T05:34:13.763Z,20
2017-07-29T05:34:54.331Z,25
2017-07-29T05:35:34.901Z,25
2017-07-29T05:36:15.487Z,25
2017-07-29T05:36:56.068Z,30
2017-07-29T05:37:36.700Z,30
2017-07-29T05:38:17.254Z,30
2017-07-29T05:38:57.837Z,35
2017-07-29T05:39:38.405Z,35
2017-07-29T05:40:18.988Z,35
2017-07-29T05:40:59.573Z,40
2017-07-29T05:41:40.156Z,40
2017-07-29T05:42:20.728Z,45
2017-07-29T05:43:01.315Z,45
2017-07-29T05:43:41.930Z,45
2017-07-29T05:44:22.510Z,50
2017-07-29T05:45:03.085Z,50
2017-07-29T05:45:43.649Z,50
2017-07-29T05:46:24.269Z,45
2017-07-29T05:47:04.838Z,35
2017-07-29T05:47:45.396Z,30
2017-07-29T05:48:25.991Z,30
2017-07-29T05:49:06.572Z,25
2017-07-29T05:49:47.154Z,25
2017-07-29T05:50:27.733Z,25
2017-07-29T05:51:08.320Z,25
2017-07-29T05:51:48.884Z,25
2017-07-29T05:52:29.450Z,30
2017-07-29T05:53:10.067Z,35
2017-07-29T05:53:50.650Z,35
2017-07-29T05:54:31.204Z,35
2017-07-29T05:55:11.798Z,40
2017-07-29T05:55:52.392Z,40
2017-07-29T05:56:32.967Z,45
2017-07-29T05:57:13.539Z,50
2017-07-29T05:57:54.108Z,55
2017-07-29T05:58:34.675Z,65
2017-07-29T05:59:15.246Z,75
2017-07-29T05:59:55.816Z,80
2017-07-29T06:00:36.375Z,80
2017-07-29T06:01:16.957Z,70
2017-07-29T06:01:57.546Z,60
2017-07-29T06:02:38.106Z,50
2017-07-29T06:03:18.695Z,45
2017-07-29T06:03:59.262Z,40
2017-07-29T06:04:39.840Z,40
2017-07-29T06:05:20.410Z,45
2017-07-29T06:06:00.966Z,45
2017-07-29T06:06:41.530Z,45
2017-07-29T06:07:22.121Z,45
2017-07-29T06:08:02.706Z,45
2017-07-29T06:08:43.278Z,45
2017-07-29T06:09:23.874Z,50
2017-07-29T06:10:04.453Z,55
2017-07-29T06:10:45.039Z,60
2017-07-29T06:11:25.610Z,60
2017-07-29T06:12:06.178Z,60
2017-07-29T06:12:46.760Z,55
2017-07-29T06:13:27.328Z,50
2017-07-29T06:14:07.912Z,50
2017-07-29T06:14:48.488Z,55
2017-07-29T06:15:29.060Z,60
2017-07-29T06:16:09.639Z,60
2017-07-29T06:16:50.203Z,60
2017-07-29T06:17:30.770Z,60
2017-07-29T06:18:11.357Z,55
2017-07-29T06:18:51.918Z,55
2017-07-29T06:19:32.494Z,50
2017-07-29T06:20:13.063Z,45
2017-07-29T06:20:53.630Z,45
2017-07-29T06:21:34.206Z,45
2017-07-29T06:22:14.780Z,45
2017-07-29T06:22:55.352Z,50
2017-07-29T06:23:35.909Z,55
2017-07-29T06:24:16.475Z,50
2017-07-29T06:24:57.041Z,45
2017-07-29T06:25:37.620Z,45
2017-07-29T06:26:18.182Z,40
2017-07-29T06:26:58.756Z,40
2017-07-29T06:27:39.328Z,45
2017-07-29T06:28:19.967Z,45
2017-07-29T06:29:00.518Z,45
2017-07-29T06:29:41.094Z,45
2017-07-29T06:30:21.674Z,55
2017-07-29T06:31:02.249Z,80
2017-07-29T06:31:42.817Z,105
2017-07-29T06:32:23.387Z,140
2017-07-29T06:33:03.977Z,215
2017-07-29T06:33:44.549Z,270
2017-07-29T06:34:25.121Z,425
2017-07-29T06:35:05.711Z,835
2017-07-29T06:35:46.307Z,640
2017-07-29T06:36:26.893Z,725
2017-07-29T06:37:07.445Z,820
2017-07-29T06:37:48.015Z,580
2017-07-29T06:38:28.591Z,900
2017-07-29T06:39:09.164Z,705
2017-07-29T06:39:49.728Z,430
2017-07-29T06:40:30.340Z,245
2017-07-29T06:41:10.935Z,175
2017-07-29T06:41:51.518Z,130
2017-07-29T06:42:32.079Z,90
2017-07-29T06:43:12.647Z,70
2017-07-29T06:43:53.246Z,55
2017-07-29T06:44:33.823Z,50
2017-07-29T06:45:14.437Z,50
2017-07-29T06:45:54.995Z,50
2017-07-29T06:46:35.583Z,50
2017-07-29T06:47:16.173Z,50
2017-07-29T06:47:56.757Z,50
2017-07-29T06:48:37.339Z,50
2017-07-29T06:49:17.940Z,55
2017-07-29T06:49:58.504Z,65
2017-07-29T06:50:39.069Z,70
2017-07-29T06:51:19.662Z,80
2017-07-29T06:52:00.226Z,75
2017-07-29T06:52:40.810Z,70
2017-07-29T06:53:21.392Z,70
2017-07-29T06:54:01.962Z,70
2017-07-29T06:54:42.521Z,65
2017-07-29T06:55:23.088Z,55
2017-07-29T06:56:03.667Z,55
2017-07-29T06:56:44.291Z,45
2017-07-29T06:57:24.872Z,45
2017-07-29T06:58:05.482Z,40
2017-07-29T06:58:46.079Z,40
2017-07-29T06:59:26.640Z,40
2017-07-29T07:00:07.231Z,40
2017-07-29T07:00:47.839Z,40
2017-07-29T07:01:28.409Z,40
2017-07-29T07:02:08.988Z,45
2017-07-29T07:02:49.557Z,45
2017-07-29T07:03:30.128Z,45
2017-07-29T07:04:10.699Z,45
2017-07-29T07:04:51.272Z,45
2017-07-29T07:05:31.852Z,40
2017-07-29T07:06:12.428Z,40
2017-07-29T07:06:52.999Z,40
2017-07-29T07:07:33.592Z,40
2017-07-29T07:08:14.166Z,40
2017-07-29T07:08:54.741Z,40
2017-07-29T07:09:35.321Z,45
2017-07-29T07:10:15.926Z,50
2017-07-29T07:10:56.513Z,50
2017-07-29T07:11:37.069Z,50
2017-07-29T07:12:17.672Z,50
2017-07-29T07:12:58.251Z,55
2017-07-29T07:13:38.872Z,55
2017-07-29T07:14:19.444Z,60
2017-07-29T07:15:00.037Z,65
2017-07-29T07:15:40.649Z,60
2017-07-29T07:16:21.242Z,55
2017-07-29T07:17:01.826Z,55
2017-07-29T07:17:42.396Z,50
2017-07-29T07:18:22.970Z,50
2017-07-29T07:19:03.532Z,50
2017-07-29T07:19:44.101Z,50
2017-07-29T07:20:24.665Z,55
2017-07-29T07:21:05.232Z,60
2017-07-29T07:21:45.797Z,65
2017-07-29T07:22:26.365Z,65
2017-07-29T07:23:06.933Z,65
2017-07-29T07:23:47.546Z,60
2017-07-29T07:24:28.151Z,55
2017-07-29T07:25:08.711Z,50
2017-07-29T07:25:49.276Z,45
2017-07-29T07:26:29.841Z,40
2017-07-29T07:27:10.417Z,35
2017-07-29T07:27:51.009Z,35
2017-07-29T07:28:31.582Z,35
2017-07-29T07:29:12.176Z,35
2017-07-29T07:29:52.756Z,35
2017-07-29T07:30:33.334Z,35
2017-07-29T07:31:13.893Z,35
2017-07-29T07:31:54.470Z,35
2017-07-29T07:32:35.063Z,35
2017-07-29T07:33:15.652Z,30
2017-07-29T07:33:56.247Z,35
2017-07-29T07:34:36.857Z,35
2017-07-29T07:35:17.423Z,40
2017-07-29T07:35:57.995Z,40
2017-07-29T07:36:38.597Z,40
2017-07-29T07:37:19.166Z,40
2017-07-29T07:37:59.759Z,45
2017-07-29T07:38:40.317Z,45
2017-07-29T07:39:20.883Z,45
2017-07-29T07:40:01.466Z,45
2017-07-29T07:40:42.054Z,45
2017-07-29T07:41:22.635Z,40
2017-07-29T07:42:03.224Z,40
2017-07-29T07:42:43.786Z,40
2017-07-29T07:43:24.369Z,40
2017-07-29T07:44:04.950Z,40
2017-07-29T07:44:45.514Z,45
2017-07-29T07:45:26.106Z,50
2017-07-29T07:46:06.677Z,50
2017-07-29T07:46:47.284Z,55
2017-07-29T07:47:27.898Z,55
2017-07-29T07:48:08.502Z,60
2017-07-29T07:48:49.120Z,65
2017-07-29T07:49:29.703Z,75
2017-07-29T07:50:10.290Z,85
2017-07-29T07:50:50.892Z,90
2017-07-29T07:51:31.458Z,90
2017-07-29T07:52:12.051Z,85
2017-07-29T07:52:52.627Z,75
2017-07-29T07:53:33.240Z,70
2017-07-29T07:54:13.817Z,70
2017-07-29T07:54:54.395Z,70
2017-07-29T07:55:34.981Z,75
2017-07-29T07:56:15.569Z,75
2017-07-29T07:56:56.138Z,75
2017-07-29T07:57:36.709Z,70
2017-07-29T07:58:17.286Z,70
2017-07-29T07:58:57.865Z,70
2017-07-29T07:59:38.442Z,70
2017-07-29T08:00:19.058Z,75
2017-07-29T08:00:59.629Z,80
2017-07-29T08:01:40.224Z,85
2017-07-29T08:02:20.888Z,90
2017-07-29T08:03:01.497Z,115
2017-07-29T08:03:42.096Z,130
2017-07-29T08:04:22.680Z,150
2017-07-29T08:05:03.274Z,160
2017-07-29T08:05:43.866Z,180
2017-07-29T08:06:24.434Z,220
2017-07-29T08:07:05.628Z,215
2017-07-29T08:07:46.210Z,275
2017-07-29T08:08:26.791Z,255
2017-07-29T08:09:07.389Z,230
2017-07-29T08:09:48.040Z,205
2017-07-29T08:10:28.850Z,195
2017-07-29T08:11:09.721Z,195
2017-07-29T08:11:50.470Z,220
2017-07-29T08:12:31.025Z,220
2017-07-29T08:13:11.600Z,235
2017-07-29T08:13:52.250Z,260
2017-07-29T08:14:32.856Z,240
2017-07-29T08:15:13.466Z,230
2017-07-29T08:15:54.069Z,225
2017-07-29T08:16:34.640Z,215
2017-07-29T08:17:15.284Z,220
2017-07-29T08:17:55.885Z,230
2017-07-29T08:18:36.443Z,245
2017-07-29T08:19:17.338Z,255
2017-07-29T08:19:58.352Z,255
2017-07-29T08:20:39.301Z,240
2017-07-29T08:21:20.499Z,225
2017-07-29T08:22:01.224Z,215
2017-07-29T08:22:42.086Z,245
2017-07-29T08:23:22.942Z,275
2017-07-29T08:24:03.680Z,300
2017-07-29T08:24:44.856Z,295
2017-07-29T08:25:25.956Z,280
2017-07-29T08:26:08.049Z,265
2017-07-29T08:26:49.408Z,275
2017-07-29T08:27:30.187Z,320
2017-07-29T08:28:10.950Z,335
2017-07-29T08:28:51.687Z,420
2017-07-29T08:29:32.260Z,345
2017-07-29T08:30:12.837Z,335
2017-07-29T08:30:53.625Z,355
2017-07-29T08:31:34.509Z,390
2017-07-29T08:32:15.078Z,400
2017-07-29T08:32:55.678Z,440
2017-07-29T08:33:36.263Z,395
2017-07-29T08:34:16.864Z,395
2017-07-29T08:34:57.453Z,395
2017-07-29T08:35:38.040Z,380
2017-07-29T08:36:18.637Z,355
2017-07-29T08:36:59.226Z,340
2017-07-29T08:37:39.803Z,330
2017-07-29T08:38:20.410Z,315
2017-07-29T08:39:00.965Z,295
2017-07-29T08:39:41.563Z,275
2017-07-29T08:40:22.142Z,260
2017-07-29T08:41:02.730Z,245
2017-07-29T08:41:43.344Z,230
2017-07-29T08:42:24.462Z,225
2017-07-29T08:43:05.039Z,220
2017-07-29T08:43:45.615Z,220
2017-07-29T08:44:26.179Z,220
2017-07-29T08:45:06.772Z,220
2017-07-29T08:45:47.351Z,220
2017-07-29T08:46:27.929Z,215
2017-07-29T08:47:08.506Z,215
2017-07-29T08:47:49.077Z,215
2017-07-29T08:48:29.645Z,215
2017-07-29T08:49:10.217Z,210
2017-07-29T08:49:50.790Z,210
2017-07-29T08:50:31.378Z,210
2017-07-29T08:51:11.978Z,215
2017-07-29T08:51:52.557Z,215
2017-07-29T08:52:33.124Z,215
2017-07-29T08:53:13.740Z,215
2017-07-29T08:53:54.313Z,215
2017-07-29T08:54:34.886Z,215
2017-07-29T08:55:15.457Z,215
2017-07-29T08:55:56.022Z,215
2017-07-29T08:56:36.589Z,210
2017-07-29T08:57:17.184Z,205
2017-07-29T08:57:57.763Z,195
2017-07-29T08:58:38.415Z,185
2017-07-29T08:59:19.004Z,180
2017-07-29T08:59:59.578Z,175
2017-07-29T09:00:40.164Z,170
2017-07-29T09:01:20.742Z,170
2017-07-29T09:02:01.324Z,165
2017-07-29T09:02:41.897Z,165
2017-07-29T09:03:22.478Z,160
2017-07-29T09:04:03.065Z,160
2017-07-29T09:04:43.653Z,160
2017-07-29T09:05:24.214Z,160
2017-07-29T09:06:04.806Z,155
2017-07-29T09:06:45.368Z,150
2017-07-29T09:07:25.967Z,150
2017-07-29T09:08:06.567Z,145
2017-07-29T09:08:47.151Z,145
2017-07-29T09:09:27.714Z,145
2017-07-29T09:10:08.300Z,145
2017-07-29T09:10:48.897Z,145
2017-07-29T09:11:29.504Z,140
2017-07-29T09:12:10.154Z,135
2017-07-29T09:12:50.705Z,140
2017-07-29T09:13:31.273Z,140
2017-07-29T09:14:11.846Z,140
2017-07-29T09:14:52.471Z,140
2017-07-29T09:15:33.054Z,140
2017-07-29T09:16:13.657Z,135
2017-07-29T09:16:54.263Z,135
2017-07-29T09:17:34.913Z,140
2017-07-29T09:18:15.508Z,140
2017-07-29T09:18:56.091Z,140
2017-07-29T09:19:36.666Z,155
2017-07-29T09:20:17.244Z,165
2017-07-29T09:20:57.835Z,175
2017-07-29T09:21:38.477Z,175
2017-07-29T09:22:19.071Z,170
2017-07-29T09:22:59.647Z,165
2017-07-29T09:23:40.215Z,165
2017-07-29T09:24:20.811Z,160
2017-07-29T09:25:01.402Z,155
2017-07-29T09:25:42.004Z,145
2017-07-29T09:26:22.579Z,145
2017-07-29T09:27:03.175Z,150
2017-07-29T09:27:43.762Z,150
2017-07-29T09:28:24.341Z,150
2017-07-29T09:29:04.946Z,145
2017-07-29T09:29:45.541Z,145
2017-07-29T09:30:26.138Z,145
2017-07-29T09:31:06.742Z,150
2017-07-29T09:31:47.325Z,160
2017-07-29T09:32:27.891Z,165
2017-07-29T09:33:08.522Z,165
2017-07-29T09:33:49.132Z,190
2017-07-29T09:34:29.706Z,200
2017-07-29T09:35:10.295Z,210
2017-07-29T09:35:50.860Z,225
2017-07-29T09:36:31.453Z,235
2017-07-29T09:37:12.033Z,240
2017-07-29T09:37:52.620Z,230
2017-07-29T09:38:33.210Z,230
2017-07-29T09:39:13.780Z,230
2017-07-29T09:39:54.361Z,225
2017-07-29T09:40:34.965Z,225
2017-07-29T09:41:15.538Z,230
2017-07-29T09:41:56.130Z,225
2017-07-29T09:42:36.707Z,225